地図

経路データ

SID SEASON NUMBER BASIN SUBBASIN NAME ISO_TIME NATURE LAT LON WMO_WIND WMO_PRES WMO_AGENCY TRACK_TYPE DIST2LAND LANDFALL IFLAG USA_AGENCY USA_ATCF_ID USA_LAT USA_LON USA_RECORD USA_STATUS USA_WIND USA_PRES USA_SSHS USA_R34_NE USA_R34_SE USA_R34_SW USA_R34_NW USA_R50_NE USA_R50_SE USA_R50_SW USA_R50_NW USA_R64_NE USA_R64_SE USA_R64_SW USA_R64_NW USA_POCI USA_ROCI USA_RMW USA_EYE TOKYO_LAT TOKYO_LON TOKYO_GRADE TOKYO_WIND TOKYO_PRES TOKYO_R50_DIR TOKYO_R50_LONG TOKYO_R50_SHORT TOKYO_R30_DIR TOKYO_R30_LONG TOKYO_R30_SHORT TOKYO_LAND CMA_LAT CMA_LON CMA_CAT CMA_WIND CMA_PRES HKO_LAT HKO_LON HKO_CAT HKO_WIND HKO_PRES NEWDELHI_LAT NEWDELHI_LON NEWDELHI_GRADE NEWDELHI_WIND NEWDELHI_PRES NEWDELHI_CI NEWDELHI_DP NEWDELHI_POCI REUNION_LAT REUNION_LON REUNION_TYPE REUNION_WIND REUNION_PRES REUNION_TNUM REUNION_CI REUNION_RMW REUNION_R34_NE REUNION_R34_SE REUNION_R34_SW REUNION_R34_NW REUNION_R50_NE REUNION_R50_SE REUNION_R50_SW REUNION_R50_NW REUNION_R64_NE REUNION_R64_SE REUNION_R64_SW REUNION_R64_NW BOM_LAT BOM_LON BOM_TYPE BOM_WIND BOM_PRES BOM_TNUM BOM_CI BOM_RMW BOM_R34_NE BOM_R34_SE BOM_R34_SW BOM_R34_NW BOM_R50_NE BOM_R50_SE BOM_R50_SW BOM_R50_NW BOM_R64_NE BOM_R64_SE BOM_R64_SW BOM_R64_NW BOM_ROCI BOM_POCI BOM_EYE BOM_POS_METHOD BOM_PRES_METHOD NADI_LAT NADI_LON NADI_CAT NADI_WIND NADI_PRES WELLINGTON_LAT WELLINGTON_LON WELLINGTON_WIND WELLINGTON_PRES DS824_LAT DS824_LON DS824_STAGE DS824_WIND DS824_PRES TD9636_LAT TD9636_LON TD9636_STAGE TD9636_WIND TD9636_PRES TD9635_LAT TD9635_LON TD9635_WIND TD9635_PRES TD9635_ROCI NEUMANN_LAT NEUMANN_LON NEUMANN_CLASS NEUMANN_WIND NEUMANN_PRES MLC_LAT MLC_LON MLC_CLASS MLC_WIND MLC_PRES USA_GUST BOM_GUST BOM_GUST_PER REUNION_GUST REUNION_GUST_PER USA_SEAHGT USA_SEARAD_NE USA_SEARAD_SE USA_SEARAD_SW USA_SEARAD_NW STORM_SPEED STORM_DIR
1901234N20129 1901 26 WP MM NOT_NAMED 1901-08-21 16:00:00 NR 20.0000 128.900 main 715 705 __________O___ -1 20.0000 128.900 7 2 309
1901234N20129 1901 26 WP MM NOT_NAMED 1901-08-21 18:00:00 NR 20.0431 128.839 main 705 698 __________P___ -1 20.0431 128.839 7 2 310
1901234N20129 1901 26 WP MM NOT_NAMED 1901-08-21 21:00:00 NR 20.1353 128.734 main 698 691 __________P___ -1 20.1353 128.734 7 3 317
1901234N20129 1901 26 WP MM NOT_NAMED 1901-08-22 00:00:00 NR 20.2985 128.590 main 694 681 __________P___ -1 20.2985 128.590 7 6 323
1901234N20129 1901 26 WP MM NOT_NAMED 1901-08-22 03:00:00 NR 20.5752 128.386 main 685 675 __________P___ -1 20.5752 128.386 7 7 326
1901234N20129 1901 26 WP MM NOT_NAMED 1901-08-22 04:00:00 NR 20.7000 128.300 main 679 668 __________O___ -1 20.7000 128.300 7 10 328
1901234N20129 1901 26 WP MM NOT_NAMED 1901-08-22 06:00:00 NR 21.0026 128.099 main 673 664 __________P___ -1 21.0026 128.099 7 12 328
1901234N20129 1901 26 WP MM NOT_NAMED 1901-08-22 09:00:00 NR 21.5576 127.734 main 668 607 __________P___ -1 21.5576 127.734 7 14 328
1901234N20129 1901 26 WP MM NOT_NAMED 1901-08-22 12:00:00 NR 22.1782 127.312 main 607 543 __________P___ -1 22.1782 127.312 7 15 327
1901234N20129 1901 26 WP MM NOT_NAMED 1901-08-22 15:00:00 NR 22.8021 126.856 main 543 516 __________P___ -1 22.8021 126.856 7 15 326
1901234N20129 1901 26 WP MM NOT_NAMED 1901-08-22 16:00:00 NR 23.0000 126.700 main 516 473 __________O___ -1 23.0000 126.700 7 14 324
1901234N20129 1901 26 WP MM NOT_NAMED 1901-08-22 18:00:00 NR 23.3522 126.413 main 473 420 __________P___ -1 23.3522 126.413 7 13 322
1901234N20129 1901 26 WP MM NOT_NAMED 1901-08-22 21:00:00 NR 23.8557 125.964 main 420 362 __________P___ -1 23.8557 125.964 7 13 319
1901234N20129 1901 26 WP MM NOT_NAMED 1901-08-23 00:00:00 NR 24.3269 125.488 main 362 303 __________P___ -1 24.3269 125.488 7 13 315
1901234N20129 1901 26 WP MM NOT_NAMED 1901-08-23 03:00:00 NR 24.7630 124.978 main 303 282 __________P___ -1 24.7630 124.978 7 13 313
1901234N20129 1901 26 WP MM NOT_NAMED 1901-08-23 04:00:00 NR 24.9000 124.800 main 282 242 __________O___ -1 24.9000 124.800 3 13 310
1901234N20129 1901 26 WP MM NOT_NAMED 1901-08-23 06:00:00 NR 25.1744 124.444 main 242 198 __________P___ -1 25.1744 124.444 3 13 308
1901234N20129 1901 26 WP MM NOT_NAMED 1901-08-23 09:00:00 NR 25.5550 123.878 main 202 164 __________P___ -1 25.5550 123.878 3 13 304
1901234N20129 1901 26 WP MM NOT_NAMED 1901-08-23 12:00:00 NR 25.8986 123.274 main 164 146 __________P___ -1 25.8986 123.274 3 13 300
1901234N20129 1901 26 WP MM NOT_NAMED 1901-08-23 15:00:00 NR 26.2057 122.626 main 146 146 __________P___ -1 26.2057 122.626 3 13 297
1901234N20129 1901 26 WP MM NOT_NAMED 1901-08-23 16:00:00 NR 26.3000 122.400 main 146 139 __________O___ -1 26.3000 122.400 4 14 294
1901234N20129 1901 26 WP MM NOT_NAMED 1901-08-23 18:00:00 NR 26.4768 121.933 main 148 89 __________P___ -1 26.4768 121.933 4 14 291
1901234N20129 1901 26 WP MM NOT_NAMED 1901-08-23 21:00:00 NR 26.7169 121.201 main 89 14 __________P___ -1 26.7169 121.201 4 14 289
1901234N20129 1901 26 WP MM NOT_NAMED 1901-08-24 00:00:00 NR 26.9336 120.440 main 14 0 __________P___ -1 26.9336 120.440 4 14 287
1901234N20129 1901 26 WP MM NOT_NAMED 1901-08-24 03:00:00 NR 27.1349 119.661 main 0 0 __________P___ -1 27.1349 119.661 4 14 286
1901234N20129 1901 26 WP MM NOT_NAMED 1901-08-24 04:00:00 NR 27.2000 119.400 main 0 __________O___ -1 27.2000 119.400 7 14 285

デジタル台風データ・検索

IBTrACS Databaseについて

本データベースは、米国NOAAが公開する1842年以降の世界の熱帯低気圧のベストトラックデータアーカイブInternational Best Track Archive for Climate Stewardship (IBTrACS)を、ウェブで閲覧しやすい形式に変換したものです。

最終更新日:2021-10-21